Time;durP1;ratioP1;P1;durP2;ratioP2;P2;SDS_P1;SDS_P2;PMS_P1;PMS_P2;Temp;Humidity;BMP_temperature;BMP_pressure;BME280_temperature;BME280_humidity;BME280_pressure;Samples;Min_cycle;Max_cycle;Signal;HPM_P1;HPM_P2
2023/12/16 00:00:17;;;;;;;21.33;5.03;;;;;;;;;;4969822;28;20512;-75
2023/12/16 00:02:44;;;;;;;19.92;5.53;;;;;;;;;;4968224;28;20055;-76
2023/12/16 00:05:10;;;;;;;18.90;4.63;;;;;;;;;;4967536;28;20054;-76
2023/12/16 00:07:37;;;;;;;18.52;4.68;;;;;;;;;;4967170;28;20453;-76
2023/12/16 00:10:03;;;;;;;22.02;5.18;;;;;;;;;;4969176;28;20456;-76
2023/12/16 00:12:29;;;;;;;17.70;4.60;;;;;;;;;;4966076;28;20061;-76
2023/12/16 00:14:55;;;;;;;18.85;5.20;;;;;;;;;;4966170;28;20408;-75
2023/12/16 00:17:22;;;;;;;17.48;4.65;;;;;;;;;;4968688;28;20038;-76
2023/12/16 00:19:48;;;;;;;18.25;4.90;;;;;;;;;;4969013;28;20062;-76
2023/12/16 00:22:14;;;;;;;17.67;4.40;;;;;;;;;;4965800;28;20047;-76
2023/12/16 00:24:41;;;;;;;17.60;4.47;;;;;;;;;;4970217;28;20471;-75
2023/12/16 00:27:07;;;;;;;17.15;5.32;;;;;;;;;;4975224;28;20047;-76
2023/12/16 00:29:33;;;;;;;18.52;4.47;;;;;;;;;;4974926;28;20042;-75
2023/12/16 00:31:59;;;;;;;22.15;5.35;;;;;;;;;;4975113;28;20047;-76
2023/12/16 00:34:25;;;;;;;20.80;4.40;;;;;;;;;;4973957;28;20134;-76
2023/12/16 00:36:51;;;;;;;17.35;4.07;;;;;;;;;;4975082;28;20559;-75
2023/12/16 00:39:17;;;;;;;18.70;5.60;;;;;;;;;;4973959;28;20497;-75
2023/12/16 00:41:43;;;;;;;17.05;4.40;;;;;;;;;;4975097;28;20047;-75
2023/12/16 00:44:09;;;;;;;20.40;4.78;;;;;;;;;;4974220;28;20404;-76
2023/12/16 00:46:35;;;;;;;14.57;4.05;;;;;;;;;;4974919;28;20394;-75
2023/12/16 00:49:01;;;;;;;16.73;3.85;;;;;;;;;;4974060;28;20437;-75
2023/12/16 00:51:27;;;;;;;18.48;4.68;;;;;;;;;;4974568;28;20441;-76
2023/12/16 00:53:53;;;;;;;19.23;4.82;;;;;;;;;;4974993;28;20053;-75
2023/12/16 00:56:19;;;;;;;17.58;4.43;;;;;;;;;;4970543;28;20035;-75
2023/12/16 00:58:45;;;;;;;15.45;4.13;;;;;;;;;;4969916;28;20042;-75
2023/12/16 01:01:14;;;;;;;16.73;4.28;;;;;;;;;;4973664;28;20520;-75
2023/12/16 01:03:40;;;;;;;18.95;3.97;;;;;;;;;;4969910;28;20057;-76
2023/12/16 01:06:09;;;;;;;12.45;3.70;;;;;;;;;;4968547;28;20104;-75
2023/12/16 01:08:36;;;;;;;13.40;3.55;;;;;;;;;;4970793;28;20055;-76
2023/12/16 01:11:02;;;;;;;13.70;3.83;;;;;;;;;;4967224;28;20050;-76
2023/12/16 01:13:28;;;;;;;13.52;3.55;;;;;;;;;;4974464;28;20074;-75
2023/12/16 01:15:54;;;;;;;16.35;3.55;;;;;;;;;;4974094;28;20400;-76
2023/12/16 01:18:20;;;;;;;13.43;3.47;;;;;;;;;;4973289;28;20051;-76
2023/12/16 01:20:46;;;;;;;15.75;3.70;;;;;;;;;;4973055;28;20073;-75
2023/12/16 01:23:12;;;;;;;18.40;3.72;;;;;;;;;;4974381;28;20046;-75
2023/12/16 01:25:38;;;;;;;14.85;3.67;;;;;;;;;;4971876;28;20123;-76
2023/12/16 01:28:04;;;;;;;16.30;4.15;;;;;;;;;;4966137;28;20053;-75
2023/12/16 01:30:30;;;;;;;16.38;3.90;;;;;;;;;;4968633;28;20109;-76
2023/12/16 01:32:56;;;;;;;14.32;3.75;;;;;;;;;;4974554;28;20047;-76
2023/12/16 01:35:22;;;;;;;13.52;3.50;;;;;;;;;;4974072;28;20133;-76
2023/12/16 01:37:48;;;;;;;13.30;3.28;;;;;;;;;;4974282;28;20068;-76
2023/12/16 01:40:14;;;;;;;17.80;3.42;;;;;;;;;;4973943;28;20049;-76
2023/12/16 01:42:40;;;;;;;14.02;3.53;;;;;;;;;;4974159;28;20109;-76
2023/12/16 01:45:07;;;;;;;18.40;3.50;;;;;;;;;;4973858;28;20054;-76
2023/12/16 01:47:33;;;;;;;14.90;3.45;;;;;;;;;;4974013;28;20042;-75
2023/12/16 01:49:59;;;;;;;16.05;3.08;;;;;;;;;;4974254;28;20050;-76
2023/12/16 01:52:25;;;;;;;19.77;3.78;;;;;;;;;;4975565;28;20043;-75
2023/12/16 01:54:51;;;;;;;13.63;3.40;;;;;;;;;;4974408;28;20512;-75
2023/12/16 01:57:18;;;;;;;14.07;3.25;;;;;;;;;;4974386;28;20047;-76
2023/12/16 01:59:44;;;;;;;13.82;3.15;;;;;;;;;;4973844;28;20053;-76
2023/12/16 02:02:11;;;;;;;13.50;3.75;;;;;;;;;;4973753;28;20066;-74
2023/12/16 02:04:37;;;;;;;14.70;3.72;;;;;;;;;;4973528;28;20042;-76
2023/12/16 02:07:04;;;;;;;17.63;3.45;;;;;;;;;;4972264;28;20062;-76
2023/12/16 02:09:30;;;;;;;16.27;3.30;;;;;;;;;;4973413;28;20043;-76
2023/12/16 02:11:56;;;;;;;17.75;3.47;;;;;;;;;;4973756;28;20090;-76
2023/12/16 02:14:22;;;;;;;16.30;3.70;;;;;;;;;;4973353;28;20799;-75
2023/12/16 02:16:48;;;;;;;14.07;3.67;;;;;;;;;;4973255;28;20505;-76
2023/12/16 02:19:18;;;;;;;18.25;3.25;;;;;;;;;;4973432;28;20074;-75
2023/12/16 02:21:44;;;;;;;15.10;3.30;;;;;;;;;;4973584;28;20047;-75
2023/12/16 02:24:10;;;;;;;13.32;3.42;;;;;;;;;;4969923;28;20102;-76
2023/12/16 02:26:37;;;;;;;17.40;3.70;;;;;;;;;;4972344;28;20046;-75
2023/12/16 02:29:03;;;;;;;11.73;3.45;;;;;;;;;;4973821;28;20094;-75
2023/12/16 02:31:29;;;;;;;15.32;3.47;;;;;;;;;;4974437;28;20043;-76
2023/12/16 02:33:55;;;;;;;12.30;3.00;;;;;;;;;;4966665;28;20051;-75
2023/12/16 02:36:21;;;;;;;17.98;4.13;;;;;;;;;;4976874;28;20039;-75
2023/12/16 02:38:47;;;;;;;11.23;3.08;;;;;;;;;;4976962;28;20070;-75
2023/12/16 02:41:13;;;;;;;16.17;3.30;;;;;;;;;;4977309;28;20072;-75
2023/12/16 02:43:39;;;;;;;12.85;3.20;;;;;;;;;;4977084;28;20042;-76
2023/12/16 02:46:05;;;;;;;13.85;3.20;;;;;;;;;;4976495;28;20043;-76
2023/12/16 02:48:31;;;;;;;16.50;3.42;;;;;;;;;;4976940;28;20559;-75
2023/12/16 02:50:57;;;;;;;13.98;3.08;;;;;;;;;;4976837;28;20497;-76
2023/12/16 02:53:23;;;;;;;17.58;3.00;;;;;;;;;;4977216;28;20374;-75
2023/12/16 02:55:49;;;;;;;16.08;3.40;;;;;;;;;;4977071;28;20401;-76
2023/12/16 02:58:15;;;;;;;13.52;2.90;;;;;;;;;;4976539;28;20485;-76
2023/12/16 03:00:41;;;;;;;15.48;3.33;;;;;;;;;;4976464;28;20143;-76
2023/12/16 03:03:07;;;;;;;13.75;2.92;;;;;;;;;;4976300;28;20058;-76
2023/12/16 03:05:33;;;;;;;18.33;3.75;;;;;;;;;;4976739;28;20043;-76
2023/12/16 03:07:59;;;;;;;16.45;3.58;;;;;;;;;;4971652;28;20489;-75
2023/12/16 03:10:26;;;;;;;14.93;3.10;;;;;;;;;;4974874;28;20501;-75
2023/12/16 03:12:52;;;;;;;13.40;3.45;;;;;;;;;;4966770;28;20391;-76
2023/12/16 03:15:18;;;;;;;16.65;3.50;;;;;;;;;;4960865;28;20046;-75
2023/12/16 03:17:44;;;;;;;14.60;3.38;;;;;;;;;;4965262;28;20039;-75
2023/12/16 03:20:10;;;;;;;15.05;3.35;;;;;;;;;;4971528;28;20480;-75
2023/12/16 03:22:36;;;;;;;12.88;3.20;;;;;;;;;;4975169;28;20050;-75
2023/12/16 03:25:02;;;;;;;13.00;3.10;;;;;;;;;;4971938;28;20097;-75
2023/12/16 03:27:29;;;;;;;13.77;3.50;;;;;;;;;;4974885;28;20074;-75
2023/12/16 03:29:55;;;;;;;15.90;3.30;;;;;;;;;;4975060;28;20519;-75
2023/12/16 03:32:21;;;;;;;17.83;3.58;;;;;;;;;;4972758;28;20492;-75
2023/12/16 03:34:47;;;;;;;14.25;3.53;;;;;;;;;;4974065;28;20042;-75
2023/12/16 03:37:14;;;;;;;18.05;3.53;;;;;;;;;;4974901;28;20098;-76
2023/12/16 03:39:41;;;;;;;14.05;3.08;;;;;;;;;;4975158;28;20102;-75
2023/12/16 03:42:07;;;;;;;13.32;3.17;;;;;;;;;;4974089;28;20047;-75
2023/12/16 03:44:34;;;;;;;18.05;4.00;;;;;;;;;;4971944;28;20102;-76
2023/12/16 03:47:00;;;;;;;14.90;3.05;;;;;;;;;;4973131;28;20046;-75
2023/12/16 03:49:27;;;;;;;16.98;3.40;;;;;;;;;;4974483;28;20138;-75
2023/12/16 03:51:56;;;;;;;18.85;3.47;;;;;;;;;;4969361;28;20051;-76
2023/12/16 03:54:22;;;;;;;15.50;3.83;;;;;;;;;;4967851;28;20069;-75
2023/12/16 03:56:48;;;;;;;22.27;4.45;;;;;;;;;;4974085;28;20050;-75
2023/12/16 03:59:14;;;;;;;13.18;3.33;;;;;;;;;;4974662;28;20097;-75
2023/12/16 04:01:44;;;;;;;16.48;3.25;;;;;;;;;;4975224;28;20049;-75
2023/12/16 04:04:10;;;;;;;17.77;3.58;;;;;;;;;;4975525;28;20039;-75
2023/12/16 04:06:36;;;;;;;14.10;3.88;;;;;;;;;;4975813;28;20054;-75
2023/12/16 04:09:02;;;;;;;15.00;3.47;;;;;;;;;;4975327;28;20054;-75
2023/12/16 04:11:28;;;;;;;17.38;3.72;;;;;;;;;;4974302;28;20050;-75
2023/12/16 04:13:54;;;;;;;22.13;3.70;;;;;;;;;;4974757;28;20047;-75
2023/12/16 04:16:20;;;;;;;13.85;3.80;;;;;;;;;;4974392;28;20047;-75
2023/12/16 04:18:47;;;;;;;20.95;3.95;;;;;;;;;;4974502;28;20049;-76
2023/12/16 04:21:13;;;;;;;20.60;3.72;;;;;;;;;;4974686;28;20090;-75
2023/12/16 04:23:39;;;;;;;15.15;3.72;;;;;;;;;;4975269;28;20046;-75
2023/12/16 04:26:05;;;;;;;20.88;4.03;;;;;;;;;;4974253;28;20043;-75
2023/12/16 04:28:31;;;;;;;20.52;3.70;;;;;;;;;;4973734;28;20072;-75
2023/12/16 04:30:57;;;;;;;14.38;3.30;;;;;;;;;;4974585;28;20059;-76
2023/12/16 04:33:24;;;;;;;17.75;3.97;;;;;;;;;;4973055;28;20134;-75
2023/12/16 04:35:50;;;;;;;18.27;3.78;;;;;;;;;;4973307;28;20043;-75
2023/12/16 04:38:16;;;;;;;20.20;3.78;;;;;;;;;;4973804;28;20050;-75
2023/12/16 04:40:42;;;;;;;19.77;3.83;;;;;;;;;;4959328;28;20062;-75
2023/12/16 04:43:08;;;;;;;19.88;3.70;;;;;;;;;;4974746;28;20050;-75
2023/12/16 04:45:35;;;;;;;16.92;3.83;;;;;;;;;;4972539;28;20047;-75
2023/12/16 04:48:01;;;;;;;16.50;3.50;;;;;;;;;;4974252;28;20125;-75
2023/12/16 04:50:27;;;;;;;19.33;4.05;;;;;;;;;;4974463;28;20042;-75
2023/12/16 04:52:53;;;;;;;15.38;3.60;;;;;;;;;;4973439;28;20521;-75
2023/12/16 04:55:19;;;;;;;19.20;4.35;;;;;;;;;;4965078;28;20081;-75
2023/12/16 04:57:45;;;;;;;16.83;3.67;;;;;;;;;;4973745;28;20053;-75
2023/12/16 05:00:12;;;;;;;19.58;4.00;;;;;;;;;;4974158;28;20054;-75
2023/12/16 05:02:38;;;;;;;13.77;3.58;;;;;;;;;;4973640;28;20413;-75
2023/12/16 05:05:04;;;;;;;18.80;3.85;;;;;;;;;;4964879;28;20046;-75
2023/12/16 05:07:30;;;;;;;16.20;3.85;;;;;;;;;;4966142;28;20043;-75
2023/12/16 05:09:57;;;;;;;17.85;4.35;;;;;;;;;;4960825;28;20519;-75
2023/12/16 05:12:23;;;;;;;21.63;3.78;;;;;;;;;;4973218;28;20054;-75
2023/12/16 05:14:49;;;;;;;20.75;4.28;;;;;;;;;;4970265;28;20042;-75
2023/12/16 05:17:15;;;;;;;17.92;4.15;;;;;;;;;;4962600;28;20507;-75
2023/12/16 05:19:41;;;;;;;14.63;3.95;;;;;;;;;;4965346;28;20595;-75
2023/12/16 05:22:07;;;;;;;20.90;4.55;;;;;;;;;;4961304;28;20047;-75
2023/12/16 05:24:33;;;;;;;16.80;3.97;;;;;;;;;;4963718;28;20042;-75
2023/12/16 05:26:59;;;;;;;19.88;4.10;;;;;;;;;;4964575;28;20089;-75
2023/12/16 05:29:25;;;;;;;19.35;4.05;;;;;;;;;;4958511;28;20054;-75
2023/12/16 05:31:51;;;;;;;19.90;4.38;;;;;;;;;;4971114;28;20050;-75
2023/12/16 05:34:17;;;;;;;16.45;4.25;;;;;;;;;;4973421;28;20043;-75
2023/12/16 05:36:44;;;;;;;23.05;4.38;;;;;;;;;;4973002;28;20049;-75
2023/12/16 05:39:10;;;;;;;18.85;4.25;;;;;;;;;;4972249;28;20042;-75
2023/12/16 05:41:36;;;;;;;15.95;4.13;;;;;;;;;;4969953;28;20394;-75
2023/12/16 05:44:02;;;;;;;23.02;4.28;;;;;;;;;;4973558;28;20420;-75
2023/12/16 05:46:28;;;;;;;19.48;4.40;;;;;;;;;;4968910;28;20047;-75
2023/12/16 05:48:54;;;;;;;24.13;5.18;;;;;;;;;;4973715;28;20101;-75
2023/12/16 05:51:20;;;;;;;24.55;4.82;;;;;;;;;;4973411;28;20047;-75
2023/12/16 05:53:46;;;;;;;20.88;5.07;;;;;;;;;;4972117;28;20481;-75
2023/12/16 05:56:13;;;;;;;18.15;4.25;;;;;;;;;;4973951;28;20109;-75
2023/12/16 05:58:39;;;;;;;20.10;4.95;;;;;;;;;;4973082;28;20051;-75
2023/12/16 06:01:06;;;;;;;22.33;4.93;;;;;;;;;;4973740;28;20043;-75
2023/12/16 06:03:32;;;;;;;26.35;5.22;;;;;;;;;;4973689;28;20051;-75
2023/12/16 06:05:58;;;;;;;25.23;6.13;;;;;;;;;;4977925;28;20090;-75
2023/12/16 06:08:24;;;;;;;25.50;4.97;;;;;;;;;;4977363;28;20068;-75
2023/12/16 06:10:50;;;;;;;28.48;5.60;;;;;;;;;;4976066;28;20086;-75
2023/12/16 06:13:16;;;;;;;22.85;5.20;;;;;;;;;;4960378;28;20102;-75
2023/12/16 06:15:43;;;;;;;24.88;5.45;;;;;;;;;;4968599;28;20058;-74
2023/12/16 06:18:09;;;;;;;25.23;5.15;;;;;;;;;;4975284;28;20055;-75
2023/12/16 06:20:35;;;;;;;22.50;5.05;;;;;;;;;;4972883;28;20093;-75
2023/12/16 06:23:01;;;;;;;24.45;4.97;;;;;;;;;;4963915;28;20058;-75
2023/12/16 06:25:27;;;;;;;24.50;5.50;;;;;;;;;;4976220;28;20097;-75
2023/12/16 06:27:53;;;;;;;22.20;5.53;;;;;;;;;;4965370;28;20094;-75
2023/12/16 06:30:19;;;;;;;19.80;5.35;;;;;;;;;;4969613;28;20050;-75
2023/12/16 06:32:45;;;;;;;24.63;5.88;;;;;;;;;;4974670;28;20500;-75
2023/12/16 06:35:11;;;;;;;24.90;6.10;;;;;;;;;;4971007;28;20090;-75
2023/12/16 06:37:37;;;;;;;22.10;5.53;;;;;;;;;;4969243;28;20050;-75
2023/12/16 06:40:03;;;;;;;21.70;5.65;;;;;;;;;;4975413;28;20043;-75
2023/12/16 06:42:29;;;;;;;22.35;5.63;;;;;;;;;;4975947;28;20042;-74
2023/12/16 06:44:56;;;;;;;26.40;6.60;;;;;;;;;;4970302;28;20394;-75
2023/12/16 06:47:22;;;;;;;21.00;5.53;;;;;;;;;;4973031;28;20050;-75
2023/12/16 06:49:48;;;;;;;26.77;5.97;;;;;;;;;;4976637;28;20039;-75
2023/12/16 06:52:15;;;;;;;30.85;6.43;;;;;;;;;;4975003;28;20051;-74
2023/12/16 06:54:41;;;;;;;26.08;6.15;;;;;;;;;;4967421;28;20134;-74
2023/12/16 06:57:07;;;;;;;28.60;7.03;;;;;;;;;;4961790;28;20054;-74
2023/12/16 06:59:33;;;;;;;24.80;7.18;;;;;;;;;;4965854;28;20481;-75
2023/12/16 07:01:59;;;;;;;24.45;7.10;;;;;;;;;;4975050;28;20076;-75
2023/12/16 07:04:26;;;;;;;29.77;6.78;;;;;;;;;;4962520;28;20055;-74
2023/12/16 07:06:52;;;;;;;21.15;6.63;;;;;;;;;;4975227;28;20050;-74
2023/12/16 07:09:18;;;;;;;24.48;6.60;;;;;;;;;;4974840;28;20043;-74
2023/12/16 07:11:44;;;;;;;25.88;7.47;;;;;;;;;;4969994;28;20054;-74
2023/12/16 07:14:10;;;;;;;22.45;6.78;;;;;;;;;;4974344;28;20046;-74
2023/12/16 07:16:36;;;;;;;20.70;7.20;;;;;;;;;;4970831;28;20050;-74
2023/12/16 07:19:02;;;;;;;27.45;7.20;;;;;;;;;;4976218;28;20060;-74
2023/12/16 07:21:28;;;;;;;23.48;6.38;;;;;;;;;;4976082;28;20042;-74
2023/12/16 07:23:54;;;;;;;22.88;6.72;;;;;;;;;;4958289;28;20061;-74
2023/12/16 07:26:22;;;;;;;30.52;7.30;;;;;;;;;;4987646;28;20070;-74
2023/12/16 07:28:49;;;;;;;29.27;6.95;;;;;;;;;;4971858;28;20393;-74
2023/12/16 07:31:15;;;;;;;23.10;6.85;;;;;;;;;;4971086;28;20423;-74
2023/12/16 07:33:41;;;;;;;27.85;7.50;;;;;;;;;;4966269;28;20350;-75
2023/12/16 07:36:07;;;;;;;26.33;7.68;;;;;;;;;;4972409;28;20396;-75
2023/12/16 07:38:33;;;;;;;25.05;7.70;;;;;;;;;;4974642;28;20050;-75
2023/12/16 07:40:59;;;;;;;22.58;7.72;;;;;;;;;;4969887;28;20049;-75
2023/12/16 07:43:26;;;;;;;28.38;7.97;;;;;;;;;;4962241;28;20493;-75
2023/12/16 07:45:52;;;;;;;32.03;7.93;;;;;;;;;;4970707;28;20509;-75
2023/12/16 07:48:18;;;;;;;28.42;7.80;;;;;;;;;;4969746;28;20058;-75
2023/12/16 07:50:44;;;;;;;32.28;8.07;;;;;;;;;;4973535;28;20043;-75
2023/12/16 07:53:10;;;;;;;24.23;7.72;;;;;;;;;;4974475;28;20050;-75
2023/12/16 07:55:36;;;;;;;28.17;7.90;;;;;;;;;;4974408;28;20105;-75
2023/12/16 07:58:02;;;;;;;32.33;7.88;;;;;;;;;;4972546;28;20057;-75
2023/12/16 08:00:28;;;;;;;28.35;8.05;;;;;;;;;;4970480;28;20047;-75
2023/12/16 08:02:54;;;;;;;28.05;7.43;;;;;;;;;;4964754;28;20090;-75
2023/12/16 08:05:20;;;;;;;29.20;7.80;;;;;;;;;;4972542;28;20047;-75
2023/12/16 08:07:47;;;;;;;26.75;7.95;;;;;;;;;;4969016;28;20050;-75
2023/12/16 08:10:13;;;;;;;26.05;7.30;;;;;;;;;;4979480;28;20119;-75
2023/12/16 08:12:39;;;;;;;24.52;7.07;;;;;;;;;;4975109;28;20065;-75
2023/12/16 08:15:05;;;;;;;27.92;8.20;;;;;;;;;;4941719;28;20039;-75
2023/12/16 08:17:31;;;;;;;26.00;8.10;;;;;;;;;;4958021;28;20047;-75
2023/12/16 08:19:57;;;;;;;27.38;8.00;;;;;;;;;;4969779;28;20184;-75
2023/12/16 08:22:23;;;;;;;28.33;8.80;;;;;;;;;;4974080;28;20051;-75
2023/12/16 08:24:50;;;;;;;29.77;8.95;;;;;;;;;;4973952;28;20054;-75
2023/12/16 08:27:16;;;;;;;25.42;7.72;;;;;;;;;;4959241;28;20043;-75
2023/12/16 08:29:45;;;;;;;25.42;8.35;;;;;;;;;;4955994;28;20051;-75
2023/12/16 08:32:11;;;;;;;33.33;9.93;;;;;;;;;;4954105;28;20047;-75
2023/12/16 08:34:37;;;;;;;34.47;10.05;;;;;;;;;;4956544;28;20047;-75
2023/12/16 08:37:03;;;;;;;30.77;8.90;;;;;;;;;;4955350;28;20055;-75
2023/12/16 08:39:29;;;;;;;38.92;9.98;;;;;;;;;;4963501;28;20101;-75
2023/12/16 08:41:55;;;;;;;29.67;9.55;;;;;;;;;;4974229;28;20490;-75
2023/12/16 08:44:21;;;;;;;34.17;10.18;;;;;;;;;;4974087;28;20059;-75
2023/12/16 08:46:47;;;;;;;30.58;9.05;;;;;;;;;;4961189;28;20614;-75
2023/12/16 08:49:13;;;;;;;32.38;9.07;;;;;;;;;;4974654;28;20062;-75
2023/12/16 08:51:39;;;;;;;32.75;10.27;;;;;;;;;;4973085;28;20061;-75
2023/12/16 08:54:06;;;;;;;35.03;9.20;;;;;;;;;;4955091;28;20055;-75
2023/12/16 08:56:32;;;;;;;30.45;8.57;;;;;;;;;;4954983;29;20059;-75
2023/12/16 08:58:58;;;;;;;30.02;10.18;;;;;;;;;;4966604;28;20121;-75
2023/12/16 09:01:24;;;;;;;31.17;9.45;;;;;;;;;;4982459;28;20484;-75
2023/12/16 09:03:50;;;;;;;32.42;9.27;;;;;;;;;;4968319;28;20078;-75
2023/12/16 09:06:16;;;;;;;26.55;9.25;;;;;;;;;;4967020;28;20538;-75
2023/12/16 09:08:42;;;;;;;35.65;8.80;;;;;;;;;;4973609;28;20057;-75
2023/12/16 09:11:08;;;;;;;36.38;9.98;;;;;;;;;;4973402;28;20105;-75
2023/12/16 09:13:34;;;;;;;47.72;11.05;;;;;;;;;;4972152;28;20507;-75
2023/12/16 09:16:00;;;;;;;32.08;9.50;;;;;;;;;;4973821;28;20129;-75
2023/12/16 09:18:26;;;;;;;36.38;11.82;;;;;;;;;;4967600;28;20121;-75
2023/12/16 09:20:52;;;;;;;35.58;10.68;;;;;;;;;;4972872;28;20631;-75
2023/12/16 09:23:18;;;;;;;38.92;13.20;;;;;;;;;;4972213;28;20142;-75
2023/12/16 09:25:45;;;;;;;32.22;10.05;;;;;;;;;;4973424;28;20055;-75
2023/12/16 09:28:11;;;;;;;34.88;11.30;;;;;;;;;;4970265;28;20070;-75
2023/12/16 09:30:37;;;;;;;38.33;10.52;;;;;;;;;;4971134;28;20039;-75
2023/12/16 09:33:04;;;;;;;43.05;13.15;;;;;;;;;;4970708;28;20046;-75
2023/12/16 09:35:30;;;;;;;38.13;12.57;;;;;;;;;;4971711;28;20058;-75
2023/12/16 09:37:56;;;;;;;39.63;11.52;;;;;;;;;;4972831;28;20489;-75
2023/12/16 09:40:22;;;;;;;38.65;11.85;;;;;;;;;;4972482;28;20399;-75
2023/12/16 09:42:53;;;;;;;41.30;10.88;;;;;;;;;;4973195;28;20397;-75
2023/12/16 09:45:20;;;;;;;32.92;9.95;;;;;;;;;;4973148;28;20046;-75
2023/12/16 09:47:46;;;;;;;45.03;10.95;;;;;;;;;;4972146;28;20082;-75
2023/12/16 09:50:12;;;;;;;36.40;10.55;;;;;;;;;;4972079;28;20078;-75
2023/12/16 09:52:41;;;;;;;37.65;11.00;;;;;;;;;;4968827;28;20040;-75
2023/12/16 09:55:08;;;;;;;37.33;10.82;;;;;;;;;;4970412;28;20069;-75
2023/12/16 09:57:35;;;;;;;42.15;11.75;;;;;;;;;;4968138;28;20063;-75
2023/12/16 10:00:02;;;;;;;52.47;14.57;;;;;;;;;;4981948;28;20043;-75
2023/12/16 10:02:29;;;;;;;48.40;14.73;;;;;;;;;;4972133;28;20389;-75
2023/12/16 10:04:59;;;;;;;40.35;11.85;;;;;;;;;;4972985;28;20496;-75
2023/12/16 10:07:25;;;;;;;44.63;12.00;;;;;;;;;;4972124;28;20131;-75
2023/12/16 10:09:51;;;;;;;40.67;12.05;;;;;;;;;;4969460;28;20063;-75
2023/12/16 10:12:19;;;;;;;35.72;11.20;;;;;;;;;;4971282;28;20051;-75
2023/12/16 10:14:46;;;;;;;39.15;11.73;;;;;;;;;;4963329;28;20477;-75
2023/12/16 10:17:13;;;;;;;39.97;12.00;;;;;;;;;;4970243;28;20117;-75
2023/12/16 10:19:39;;;;;;;45.55;12.90;;;;;;;;;;4972649;28;20043;-75
2023/12/16 10:22:05;;;;;;;41.15;12.65;;;;;;;;;;4964558;28;20122;-75
2023/12/16 10:24:32;;;;;;;52.30;12.68;;;;;;;;;;4971921;28;20058;-75
2023/12/16 10:26:58;;;;;;;47.55;13.45;;;;;;;;;;4971846;28;20052;-75
2023/12/16 10:29:24;;;;;;;46.70;13.38;;;;;;;;;;4972944;28;20054;-75
2023/12/16 10:31:50;;;;;;;44.33;14.18;;;;;;;;;;4968560;28;20066;-75
2023/12/16 10:34:17;;;;;;;41.00;13.43;;;;;;;;;;4972898;28;20133;-74
2023/12/16 10:36:43;;;;;;;49.45;14.15;;;;;;;;;;4968075;28;20061;-75
2023/12/16 10:39:09;;;;;;;50.55;14.65;;;;;;;;;;4972373;28;20043;-75
2023/12/16 10:41:35;;;;;;;54.15;14.10;;;;;;;;;;4973147;28;20208;-75
2023/12/16 10:44:01;;;;;;;52.13;14.68;;;;;;;;;;4972698;28;20463;-75
2023/12/16 10:46:33;;;;;;;48.40;14.75;;;;;;;;;;4970141;28;20078;-75
2023/12/16 10:48:59;;;;;;;;;;;;;;;;;;4969573;28;20306;-75
2023/12/16 10:51:26;;;;;;;49.53;15.23;;;;;;;;;;4975337;28;19961;-75
2023/12/16 10:53:59;;;;;;;48.35;16.30;;;;;;;;;;4974006;28;20059;-75
2023/12/16 10:56:29;;;;;;;52.42;16.52;;;;;;;;;;4975994;28;20492;-75
2023/12/16 10:58:59;;;;;;;45.95;16.25;;;;;;;;;;4973613;28;20054;-75
2023/12/16 11:01:29;;;;;;;52.53;16.73;;;;;;;;;;4972967;28;20039;-73
2023/12/16 11:04:03;;;;;;;55.17;18.13;;;;;;;;;;4967655;28;20141;-74
2023/12/16 11:06:56;;;;;;;43.72;16.40;;;;;;;;;;4976045;28;20050;-75
2023/12/16 11:09:23;;;;;;;49.25;17.83;;;;;;;;;;4972609;28;20105;-75
2023/12/16 11:11:49;;;;;;;52.92;17.63;;;;;;;;;;4975841;28;20085;-75
2023/12/16 11:14:16;;;;;;;50.03;17.23;;;;;;;;;;4975686;28;20034;-75
2023/12/16 11:16:50;;;;;;;57.60;17.55;;;;;;;;;;4970927;28;20050;-75
2023/12/16 11:19:16;;;;;;;49.97;18.92;;;;;;;;;;4970571;28;20089;-75
2023/12/16 11:21:43;;;;;;;55.05;18.52;;;;;;;;;;4969170;28;20050;-75
2023/12/16 11:24:10;;;;;;;58.40;19.85;;;;;;;;;;4971439;28;20488;-75
2023/12/16 11:26:36;;;;;;;51.97;18.40;;;;;;;;;;4974797;28;20452;-75
2023/12/16 11:29:03;;;;;;;52.65;18.65;;;;;;;;;;4974070;28;20082;-75
2023/12/16 11:31:30;;;;;;;62.88;19.50;;;;;;;;;;4974939;28;20523;-75
2023/12/16 11:33:56;;;;;;;55.78;19.58;;;;;;;;;;4976196;28;20051;-75
2023/12/16 11:36:41;;;;;;;50.65;19.23;;;;;;;;;;4976069;28;20105;-75
2023/12/16 11:39:28;;;;;;;54.78;18.35;;;;;;;;;;4975375;28;20058;-75
2023/12/16 11:41:54;;;;;;;49.33;19.92;;;;;;;;;;4974649;28;20061;-75
2023/12/16 11:44:20;;;;;;;50.85;18.63;;;;;;;;;;4972067;28;20042;-75
2023/12/16 11:46:46;;;;;;;52.22;20.17;;;;;;;;;;4972608;28;20063;-75
2023/12/16 11:49:15;;;;;;;44.53;19.23;;;;;;;;;;4975580;28;20101;-75
2023/12/16 11:51:42;;;;;;;63.55;23.63;;;;;;;;;;4975281;28;20086;-75
2023/12/16 11:54:09;;;;;;;58.55;24.23;;;;;;;;;;4974796;28;20392;-75
2023/12/16 11:56:36;;;;;;;60.28;24.75;;;;;;;;;;4974859;28;20075;-75
2023/12/16 11:59:03;;;;;;;53.33;22.90;;;;;;;;;;4975403;28;20038;-75
2023/12/16 12:01:31;;;;;;;57.20;21.60;;;;;;;;;;4974529;28;20381;-75
2023/12/16 12:03:58;;;;;;;46.75;20.38;;;;;;;;;;4974033;28;20074;-75
2023/12/16 12:06:25;;;;;;;51.95;21.80;;;;;;;;;;4974967;28;20062;-75
2023/12/16 12:08:51;;;;;;;48.35;20.58;;;;;;;;;;4974412;28;20046;-75
2023/12/16 12:11:18;;;;;;;50.40;21.45;;;;;;;;;;4974620;28;20078;-75
2023/12/16 12:13:44;;;;;;;46.53;20.38;;;;;;;;;;4974897;28;20130;-75
2023/12/16 12:16:12;;;;;;;45.80;20.45;;;;;;;;;;4974943;28;20432;-75
2023/12/16 12:18:39;;;;;;;50.55;19.27;;;;;;;;;;4975089;28;20125;-75
2023/12/16 12:21:06;;;;;;;50.22;20.92;;;;;;;;;;4974733;28;20086;-75
2023/12/16 12:23:33;;;;;;;49.47;21.13;;;;;;;;;;4969855;28;20523;-75
2023/12/16 12:26:00;;;;;;;52.47;21.65;;;;;;;;;;4963033;28;20539;-75
2023/12/16 12:28:26;;;;;;;40.00;18.63;;;;;;;;;;4966217;28;20043;-75
2023/12/16 12:31:00;;;;;;;37.67;18.08;;;;;;;;;;4953436;28;20039;-75
2023/12/16 12:33:26;;;;;;;44.50;19.95;;;;;;;;;;4955645;28;20055;-75
2023/12/16 12:35:52;;;;;;;34.78;17.35;;;;;;;;;;4971971;28;20051;-75
2023/12/16 12:38:19;;;;;;;44.88;19.25;;;;;;;;;;4974649;28;20492;-75
2023/12/16 12:40:56;;;;;;;41.72;19.80;;;;;;;;;;4974772;28;20051;-75
2023/12/16 12:43:29;;;;;;;45.15;20.92;;;;;;;;;;4974526;28;20055;-75
2023/12/16 12:46:06;;;;;;;42.72;18.95;;;;;;;;;;4974550;28;20035;-75
2023/12/16 12:48:33;;;;;;;36.97;18.52;;;;;;;;;;4974636;28;20395;-75
2023/12/16 12:51:09;;;;;;;37.80;17.48;;;;;;;;;;4974110;28;20061;-75
2023/12/16 12:53:39;;;;;;;36.20;17.63;;;;;;;;;;4974397;28;20141;-75
2023/12/16 12:56:06;;;;;;;40.40;20.10;;;;;;;;;;4974488;28;20105;-75
2023/12/16 12:58:33;;;;;;;39.50;18.73;;;;;;;;;;4974599;28;20050;-75
2023/12/16 13:01:00;;;;;;;41.05;19.40;;;;;;;;;;4974296;28;20141;-75
2023/12/16 13:03:27;;;;;;;35.35;18.10;;;;;;;;;;4962190;28;20070;-75
2023/12/16 13:05:53;;;;;;;32.42;18.10;;;;;;;;;;4972899;28;20338;-75
2023/12/16 13:08:19;;;;;;;31.40;17.58;;;;;;;;;;4973248;28;20055;-75
2023/12/16 13:10:46;;;;;;;36.78;17.55;;;;;;;;;;4973967;28;20055;-75
2023/12/16 13:13:12;;;;;;;30.40;16.50;;;;;;;;;;4966533;28;20511;-75
2023/12/16 13:15:39;;;;;;;32.78;18.48;;;;;;;;;;4971214;28;20050;-75
2023/12/16 13:18:05;;;;;;;34.63;18.27;;;;;;;;;;4974225;28;20106;-75
2023/12/16 13:20:31;;;;;;;37.25;19.00;;;;;;;;;;4952374;28;20051;-75
2023/12/16 13:22:57;;;;;;;38.22;18.42;;;;;;;;;;4971805;28;20181;-75
2023/12/16 13:25:23;;;;;;;35.75;18.90;;;;;;;;;;4970733;28;20039;-75
2023/12/16 13:27:49;;;;;;;29.85;16.40;;;;;;;;;;4962180;28;20059;-75
2023/12/16 13:30:15;;;;;;;34.17;17.20;;;;;;;;;;4973390;28;20047;-75
2023/12/16 13:32:43;;;;;;;32.67;17.77;;;;;;;;;;4973994;28;20046;-75
2023/12/16 13:35:09;;;;;;;33.45;18.10;;;;;;;;;;4973502;28;20118;-75
2023/12/16 13:37:35;;;;;;;32.60;17.02;;;;;;;;;;4973763;28;20051;-75
2023/12/16 13:40:03;;;;;;;31.58;17.50;;;;;;;;;;4964948;28;20051;-75
2023/12/16 13:42:30;;;;;;;34.35;18.08;;;;;;;;;;4954431;28;20062;-75
2023/12/16 13:44:56;;;;;;;25.00;15.73;;;;;;;;;;4956472;28;20055;-75
2023/12/16 13:47:22;;;;;;;30.58;16.38;;;;;;;;;;4954499;29;20193;-75
2023/12/16 13:49:48;;;;;;;28.42;16.20;;;;;;;;;;4956641;28;20051;-75
2023/12/16 13:52:14;;;;;;;26.98;16.88;;;;;;;;;;4961468;28;20058;-75
2023/12/16 13:54:40;;;;;;;24.20;14.25;;;;;;;;;;4953012;29;20051;-75
2023/12/16 13:57:07;;;;;;;28.70;15.45;;;;;;;;;;4954180;28;20051;-75
2023/12/16 13:59:34;;;;;;;24.65;13.52;;;;;;;;;;4954124;28;20065;-75
2023/12/16 14:02:00;;;;;;;23.50;13.63;;;;;;;;;;4958348;28;20556;-75
2023/12/16 14:04:26;;;;;;;20.67;13.13;;;;;;;;;;4971161;28;20138;-75
2023/12/16 14:06:52;;;;;;;27.33;14.80;;;;;;;;;;4966522;28;20450;-75
2023/12/16 14:09:18;;;;;;;24.52;14.13;;;;;;;;;;4962608;28;20613;-75
2023/12/16 14:11:45;;;;;;;25.83;14.32;;;;;;;;;;4966710;28;20090;-75
2023/12/16 14:14:11;;;;;;;29.33;15.02;;;;;;;;;;4968447;28;20035;-75
2023/12/16 14:16:37;;;;;;;24.15;13.52;;;;;;;;;;4970615;28;20077;-75
2023/12/16 14:19:03;;;;;;;21.73;11.95;;;;;;;;;;4972116;28;20043;-75
2023/12/16 14:21:30;;;;;;;19.70;12.95;;;;;;;;;;4973530;28;20154;-75